sensor_id;sensor_type;location;lat;lon;timestamp;temperature;humidity
48454;DHT22;34261;55.678;12.464;2023-07-28T00:02:17;15.50;99.90
48454;DHT22;34261;55.678;12.464;2023-07-28T00:04:42;15.50;99.90
48454;DHT22;34261;55.678;12.464;2023-07-28T00:07:08;15.50;99.90
48454;DHT22;34261;55.678;12.464;2023-07-28T00:09:33;15.50;99.90
48454;DHT22;34261;55.678;12.464;2023-07-28T00:12:00;15.40;99.90
48454;DHT22;34261;55.678;12.464;2023-07-28T00:14:26;15.40;99.90
48454;DHT22;34261;55.678;12.464;2023-07-28T00:16:53;15.30;99.90
48454;DHT22;34261;55.678;12.464;2023-07-28T00:19:19;15.30;99.90
48454;DHT22;34261;55.678;12.464;2023-07-28T00:21:49;15.30;99.90
48454;DHT22;34261;55.678;12.464;2023-07-28T00:24:15;15.30;99.90
48454;DHT22;34261;55.678;12.464;2023-07-28T00:26:41;15.40;99.90
48454;DHT22;34261;55.678;12.464;2023-07-28T00:29:07;15.40;99.90
48454;DHT22;34261;55.678;12.464;2023-07-28T00:31:33;15.40;99.90
48454;DHT22;34261;55.678;12.464;2023-07-28T00:33:58;15.40;99.90
48454;DHT22;34261;55.678;12.464;2023-07-28T00:36:24;15.30;99.90
48454;DHT22;34261;55.678;12.464;2023-07-28T00:38:49;15.20;99.90
48454;DHT22;34261;55.678;12.464;2023-07-28T00:41:15;15.20;99.90
48454;DHT22;34261;55.678;12.464;2023-07-28T00:43:41;15.10;99.90
48454;DHT22;34261;55.678;12.464;2023-07-28T00:46:06;15.10;99.90
48454;DHT22;34261;55.678;12.464;2023-07-28T00:48:32;15.10;99.90
48454;DHT22;34261;55.678;12.464;2023-07-28T00:50:58;15.10;99.90
48454;DHT22;34261;55.678;12.464;2023-07-28T00:53:24;15.00;99.90
48454;DHT22;34261;55.678;12.464;2023-07-28T00:55:51;15.00;99.90
48454;DHT22;34261;55.678;12.464;2023-07-28T00:58:16;15.00;99.90
48454;DHT22;34261;55.678;12.464;2023-07-28T01:00:42;15.00;99.90
48454;DHT22;34261;55.678;12.464;2023-07-28T01:03:07;15.00;99.90
48454;DHT22;34261;55.678;12.464;2023-07-28T01:08:34;15.00;99.90
48454;DHT22;34261;55.678;12.464;2023-07-28T01:11:02;15.00;99.90
48454;DHT22;34261;55.678;12.464;2023-07-28T01:13:28;15.00;99.90
48454;DHT22;34261;55.678;12.464;2023-07-28T01:15:54;15.00;99.90
48454;DHT22;34261;55.678;12.464;2023-07-28T01:18:19;14.90;99.90
48454;DHT22;34261;55.678;12.464;2023-07-28T01:20:49;14.90;99.90
48454;DHT22;34261;55.678;12.464;2023-07-28T01:23:28;14.90;99.90
48454;DHT22;34261;55.678;12.464;2023-07-28T01:28:30;14.80;99.90
48454;DHT22;34261;55.678;12.464;2023-07-28T01:30:57;14.80;99.90
48454;DHT22;34261;55.678;12.464;2023-07-28T01:33:23;14.80;99.90
48454;DHT22;34261;55.678;12.464;2023-07-28T01:35:48;14.80;99.90
48454;DHT22;34261;55.678;12.464;2023-07-28T01:38:14;14.90;99.90
48454;DHT22;34261;55.678;12.464;2023-07-28T01:40:39;14.80;99.90
48454;DHT22;34261;55.678;12.464;2023-07-28T01:43:05;14.80;99.90
48454;DHT22;34261;55.678;12.464;2023-07-28T01:45:30;14.70;99.90
48454;DHT22;34261;55.678;12.464;2023-07-28T01:47:56;14.70;99.90
48454;DHT22;34261;55.678;12.464;2023-07-28T01:50:22;14.80;99.90
48454;DHT22;34261;55.678;12.464;2023-07-28T01:52:47;14.70;99.90
48454;DHT22;34261;55.678;12.464;2023-07-28T01:55:13;14.70;99.90
48454;DHT22;34261;55.678;12.464;2023-07-28T01:57:39;14.70;99.90
48454;DHT22;34261;55.678;12.464;2023-07-28T02:00:05;14.70;99.90
48454;DHT22;34261;55.678;12.464;2023-07-28T02:02:31;14.80;99.90
48454;DHT22;34261;55.678;12.464;2023-07-28T02:04:57;14.80;99.90
48454;DHT22;34261;55.678;12.464;2023-07-28T02:07:23;14.80;99.90
48454;DHT22;34261;55.678;12.464;2023-07-28T02:09:52;14.70;99.90
48454;DHT22;34261;55.678;12.464;2023-07-28T02:12:18;14.70;99.90
48454;DHT22;34261;55.678;12.464;2023-07-28T02:14:43;14.70;99.90
48454;DHT22;34261;55.678;12.464;2023-07-28T02:17:09;14.70;99.90
48454;DHT22;34261;55.678;12.464;2023-07-28T02:19:34;14.70;99.90
48454;DHT22;34261;55.678;12.464;2023-07-28T02:22:00;14.70;99.90
48454;DHT22;34261;55.678;12.464;2023-07-28T02:24:26;14.70;99.90
48454;DHT22;34261;55.678;12.464;2023-07-28T02:26:51;14.70;99.90
48454;DHT22;34261;55.678;12.464;2023-07-28T02:29:20;14.80;99.90
48454;DHT22;34261;55.678;12.464;2023-07-28T02:31:45;14.70;99.90
48454;DHT22;34261;55.678;12.464;2023-07-28T02:34:11;14.80;99.90
48454;DHT22;34261;55.678;12.464;2023-07-28T02:36:37;14.80;99.90
48454;DHT22;34261;55.678;12.464;2023-07-28T02:39:03;14.80;99.90
48454;DHT22;34261;55.678;12.464;2023-07-28T02:41:29;14.80;99.90
48454;DHT22;34261;55.678;12.464;2023-07-28T02:43:54;14.70;99.90
48454;DHT22;34261;55.678;12.464;2023-07-28T02:46:20;14.70;99.90
48454;DHT22;34261;55.678;12.464;2023-07-28T02:48:46;14.70;99.90
48454;DHT22;34261;55.678;12.464;2023-07-28T02:51:11;14.60;99.90
48454;DHT22;34261;55.678;12.464;2023-07-28T02:53:37;14.70;99.90
48454;DHT22;34261;55.678;12.464;2023-07-28T02:56:03;14.70;99.90
48454;DHT22;34261;55.678;12.464;2023-07-28T02:58:31;14.60;99.90
48454;DHT22;34261;55.678;12.464;2023-07-28T03:00:57;14.70;99.90
48454;DHT22;34261;55.678;12.464;2023-07-28T03:03:22;14.60;99.90
48454;DHT22;34261;55.678;12.464;2023-07-28T03:05:52;14.60;99.90
48454;DHT22;34261;55.678;12.464;2023-07-28T03:08:20;14.60;99.90
48454;DHT22;34261;55.678;12.464;2023-07-28T03:10:46;14.60;99.90
48454;DHT22;34261;55.678;12.464;2023-07-28T03:13:12;14.60;99.90
48454;DHT22;34261;55.678;12.464;2023-07-28T03:15:37;14.60;99.90
48454;DHT22;34261;55.678;12.464;2023-07-28T03:18:03;14.60;99.90
48454;DHT22;34261;55.678;12.464;2023-07-28T03:20:29;14.50;99.90
48454;DHT22;34261;55.678;12.464;2023-07-28T03:22:55;14.60;99.90
48454;DHT22;34261;55.678;12.464;2023-07-28T03:25:20;14.60;99.90
48454;DHT22;34261;55.678;12.464;2023-07-28T03:27:47;14.60;99.90
48454;DHT22;34261;55.678;12.464;2023-07-28T03:30:14;14.50;99.90
48454;DHT22;34261;55.678;12.464;2023-07-28T03:32:39;14.50;99.90
48454;DHT22;34261;55.678;12.464;2023-07-28T03:35:05;14.50;99.90
48454;DHT22;34261;55.678;12.464;2023-07-28T03:37:33;14.50;99.90
48454;DHT22;34261;55.678;12.464;2023-07-28T03:39:59;14.60;99.90
48454;DHT22;34261;55.678;12.464;2023-07-28T03:42:25;14.60;99.90
48454;DHT22;34261;55.678;12.464;2023-07-28T03:44:51;14.60;99.90
48454;DHT22;34261;55.678;12.464;2023-07-28T03:47:17;14.70;99.90
48454;DHT22;34261;55.678;12.464;2023-07-28T03:49:42;14.70;99.90
48454;DHT22;34261;55.678;12.464;2023-07-28T03:52:08;14.80;99.90
48454;DHT22;34261;55.678;12.464;2023-07-28T03:54:34;14.80;99.90
48454;DHT22;34261;55.678;12.464;2023-07-28T03:56:59;14.80;99.90
48454;DHT22;34261;55.678;12.464;2023-07-28T03:59:25;14.80;99.90
48454;DHT22;34261;55.678;12.464;2023-07-28T04:01:50;14.80;99.90
48454;DHT22;34261;55.678;12.464;2023-07-28T04:04:17;14.90;99.90
48454;DHT22;34261;55.678;12.464;2023-07-28T04:06:45;15.00;99.90
48454;DHT22;34261;55.678;12.464;2023-07-28T04:09:14;15.00;99.90
48454;DHT22;34261;55.678;12.464;2023-07-28T04:11:40;15.00;99.90
48454;DHT22;34261;55.678;12.464;2023-07-28T04:14:06;15.10;99.90
48454;DHT22;34261;55.678;12.464;2023-07-28T04:16:32;15.20;99.90
48454;DHT22;34261;55.678;12.464;2023-07-28T04:18:58;15.20;99.90
48454;DHT22;34261;55.678;12.464;2023-07-28T04:21:23;15.30;99.90
48454;DHT22;34261;55.678;12.464;2023-07-28T04:23:49;15.30;99.90
48454;DHT22;34261;55.678;12.464;2023-07-28T04:26:15;15.40;99.90
48454;DHT22;34261;55.678;12.464;2023-07-28T04:28:41;15.50;99.90
48454;DHT22;34261;55.678;12.464;2023-07-28T04:31:06;15.60;99.90
48454;DHT22;34261;55.678;12.464;2023-07-28T04:33:32;15.70;99.90
48454;DHT22;34261;55.678;12.464;2023-07-28T04:35:58;15.80;99.90
48454;DHT22;34261;55.678;12.464;2023-07-28T04:38:23;15.80;99.90
48454;DHT22;34261;55.678;12.464;2023-07-28T04:40:49;15.90;99.90
48454;DHT22;34261;55.678;12.464;2023-07-28T04:43:14;16.00;99.90
48454;DHT22;34261;55.678;12.464;2023-07-28T04:45:40;16.00;99.90
48454;DHT22;34261;55.678;12.464;2023-07-28T04:48:05;16.10;99.90
48454;DHT22;34261;55.678;12.464;2023-07-28T04:50:31;16.10;99.90
48454;DHT22;34261;55.678;12.464;2023-07-28T04:52:59;16.20;99.90
48454;DHT22;34261;55.678;12.464;2023-07-28T04:55:24;16.30;99.90
48454;DHT22;34261;55.678;12.464;2023-07-28T04:57:52;16.40;99.90
48454;DHT22;34261;55.678;12.464;2023-07-28T05:00:18;16.50;99.90
48454;DHT22;34261;55.678;12.464;2023-07-28T05:02:43;16.60;99.90
48454;DHT22;34261;55.678;12.464;2023-07-28T05:05:09;16.60;99.90
48454;DHT22;34261;55.678;12.464;2023-07-28T05:07:34;16.60;99.90
48454;DHT22;34261;55.678;12.464;2023-07-28T05:10:00;16.70;99.90
48454;DHT22;34261;55.678;12.464;2023-07-28T05:12:25;16.80;99.90
48454;DHT22;34261;55.678;12.464;2023-07-28T05:14:51;16.90;99.90
48454;DHT22;34261;55.678;12.464;2023-07-28T05:17:16;16.90;99.90
48454;DHT22;34261;55.678;12.464;2023-07-28T05:19:42;17.00;99.90
48454;DHT22;34261;55.678;12.464;2023-07-28T05:22:07;17.10;99.90
48454;DHT22;34261;55.678;12.464;2023-07-28T05:24:33;17.20;99.90
48454;DHT22;34261;55.678;12.464;2023-07-28T05:26:59;17.30;99.90
48454;DHT22;34261;55.678;12.464;2023-07-28T05:29:25;17.40;99.90
48454;DHT22;34261;55.678;12.464;2023-07-28T05:31:50;17.50;99.90
48454;DHT22;34261;55.678;12.464;2023-07-28T05:34:16;17.50;99.90
48454;DHT22;34261;55.678;12.464;2023-07-28T05:36:42;17.60;99.90
48454;DHT22;34261;55.678;12.464;2023-07-28T05:39:08;17.70;99.90
48454;DHT22;34261;55.678;12.464;2023-07-28T05:41:33;17.80;99.90
48454;DHT22;34261;55.678;12.464;2023-07-28T05:43:59;17.90;99.90
48454;DHT22;34261;55.678;12.464;2023-07-28T05:46:24;18.00;99.90
48454;DHT22;34261;55.678;12.464;2023-07-28T05:48:50;18.10;99.90
48454;DHT22;34261;55.678;12.464;2023-07-28T05:51:15;18.20;99.90
48454;DHT22;34261;55.678;12.464;2023-07-28T05:53:42;18.30;99.90
48454;DHT22;34261;55.678;12.464;2023-07-28T05:56:08;18.40;99.90
48454;DHT22;34261;55.678;12.464;2023-07-28T05:58:34;18.40;99.90
48454;DHT22;34261;55.678;12.464;2023-07-28T06:00:59;18.60;99.90
48454;DHT22;34261;55.678;12.464;2023-07-28T06:03:25;18.60;99.90
48454;DHT22;34261;55.678;12.464;2023-07-28T06:05:52;18.70;99.90
48454;DHT22;34261;55.678;12.464;2023-07-28T06:08:17;18.80;99.90
48454;DHT22;34261;55.678;12.464;2023-07-28T06:10:43;18.90;99.90
48454;DHT22;34261;55.678;12.464;2023-07-28T06:13:08;18.90;99.90
48454;DHT22;34261;55.678;12.464;2023-07-28T06:15:34;19.10;99.90
48454;DHT22;34261;55.678;12.464;2023-07-28T06:18:01;19.10;99.90
48454;DHT22;34261;55.678;12.464;2023-07-28T06:20:29;19.20;99.90
48454;DHT22;34261;55.678;12.464;2023-07-28T06:22:55;19.30;99.90
48454;DHT22;34261;55.678;12.464;2023-07-28T06:25:20;19.40;99.90
48454;DHT22;34261;55.678;12.464;2023-07-28T06:27:47;19.50;99.90
48454;DHT22;34261;55.678;12.464;2023-07-28T06:30:14;19.50;99.90
48454;DHT22;34261;55.678;12.464;2023-07-28T06:32:40;19.60;99.90
48454;DHT22;34261;55.678;12.464;2023-07-28T06:35:10;19.70;99.90
48454;DHT22;34261;55.678;12.464;2023-07-28T06:37:38;19.80;99.90
48454;DHT22;34261;55.678;12.464;2023-07-28T06:40:07;19.90;99.90
48454;DHT22;34261;55.678;12.464;2023-07-28T06:42:35;20.00;99.90
48454;DHT22;34261;55.678;12.464;2023-07-28T06:45:00;20.00;99.90
48454;DHT22;34261;55.678;12.464;2023-07-28T06:47:27;20.10;99.90
48454;DHT22;34261;55.678;12.464;2023-07-28T06:49:53;20.20;99.90
48454;DHT22;34261;55.678;12.464;2023-07-28T06:52:20;20.30;99.90
48454;DHT22;34261;55.678;12.464;2023-07-28T06:54:46;20.40;99.90
48454;DHT22;34261;55.678;12.464;2023-07-28T06:57:14;20.50;99.90
48454;DHT22;34261;55.678;12.464;2023-07-28T06:59:39;20.60;99.90
48454;DHT22;34261;55.678;12.464;2023-07-28T07:02:05;20.70;99.90
48454;DHT22;34261;55.678;12.464;2023-07-28T07:04:31;20.80;99.90
48454;DHT22;34261;55.678;12.464;2023-07-28T07:06:57;20.90;99.90
48454;DHT22;34261;55.678;12.464;2023-07-28T07:09:22;21.00;99.90
48454;DHT22;34261;55.678;12.464;2023-07-28T07:11:49;21.10;99.90
48454;DHT22;34261;55.678;12.464;2023-07-28T07:14:14;21.10;99.90
48454;DHT22;34261;55.678;12.464;2023-07-28T07:16:40;21.20;99.90
48454;DHT22;34261;55.678;12.464;2023-07-28T07:19:05;21.30;99.90
48454;DHT22;34261;55.678;12.464;2023-07-28T07:21:31;21.40;99.90
48454;DHT22;34261;55.678;12.464;2023-07-28T07:23:57;21.50;99.90
48454;DHT22;34261;55.678;12.464;2023-07-28T07:26:22;21.40;99.90
48454;DHT22;34261;55.678;12.464;2023-07-28T07:28:48;21.50;99.90
48454;DHT22;34261;55.678;12.464;2023-07-28T07:31:14;21.60;99.90
48454;DHT22;34261;55.678;12.464;2023-07-28T07:33:40;21.80;99.90
48454;DHT22;34261;55.678;12.464;2023-07-28T07:36:12;21.90;99.90
48454;DHT22;34261;55.678;12.464;2023-07-28T07:38:37;22.10;99.90
48454;DHT22;34261;55.678;12.464;2023-07-28T07:41:03;22.10;99.90
48454;DHT22;34261;55.678;12.464;2023-07-28T07:43:30;22.00;99.90
48454;DHT22;34261;55.678;12.464;2023-07-28T07:45:55;22.10;99.90
48454;DHT22;34261;55.678;12.464;2023-07-28T07:48:21;22.20;99.90
48454;DHT22;34261;55.678;12.464;2023-07-28T07:50:46;22.20;99.90
48454;DHT22;34261;55.678;12.464;2023-07-28T07:53:12;22.30;99.90
48454;DHT22;34261;55.678;12.464;2023-07-28T07:55:37;22.40;99.90
48454;DHT22;34261;55.678;12.464;2023-07-28T07:58:03;22.50;99.90
48454;DHT22;34261;55.678;12.464;2023-07-28T08:00:29;22.50;99.90
48454;DHT22;34261;55.678;12.464;2023-07-28T08:02:54;22.70;99.90
48454;DHT22;34261;55.678;12.464;2023-07-28T08:05:20;22.80;98.80
48454;DHT22;34261;55.678;12.464;2023-07-28T08:07:46;22.90;99.20
48454;DHT22;34261;55.678;12.464;2023-07-28T08:10:12;23.00;98.40
48454;DHT22;34261;55.678;12.464;2023-07-28T08:12:38;23.00;97.30
48454;DHT22;34261;55.678;12.464;2023-07-28T08:15:04;22.90;98.50
48454;DHT22;34261;55.678;12.464;2023-07-28T08:17:29;22.90;98.60
48454;DHT22;34261;55.678;12.464;2023-07-28T08:19:55;23.10;98.40
48454;DHT22;34261;55.678;12.464;2023-07-28T08:22:20;23.30;98.90
48454;DHT22;34261;55.678;12.464;2023-07-28T08:24:46;23.60;99.10
48454;DHT22;34261;55.678;12.464;2023-07-28T08:27:11;23.70;98.10
48454;DHT22;34261;55.678;12.464;2023-07-28T08:29:37;23.80;97.50
48454;DHT22;34261;55.678;12.464;2023-07-28T08:32:02;23.90;96.10
48454;DHT22;34261;55.678;12.464;2023-07-28T08:34:28;24.00;96.80
48454;DHT22;34261;55.678;12.464;2023-07-28T08:36:54;24.20;97.40
48454;DHT22;34261;55.678;12.464;2023-07-28T08:39:19;24.40;97.10
48454;DHT22;34261;55.678;12.464;2023-07-28T08:41:45;24.40;96.60
48454;DHT22;34261;55.678;12.464;2023-07-28T08:44:10;24.60;97.30
48454;DHT22;34261;55.678;12.464;2023-07-28T08:46:36;24.70;96.80
48454;DHT22;34261;55.678;12.464;2023-07-28T08:49:02;24.80;96.40
48454;DHT22;34261;55.678;12.464;2023-07-28T08:51:28;24.70;95.90
48454;DHT22;34261;55.678;12.464;2023-07-28T08:53:54;25.00;95.70
48454;DHT22;34261;55.678;12.464;2023-07-28T08:56:20;25.20;95.90
48454;DHT22;34261;55.678;12.464;2023-07-28T08:58:46;25.40;94.90
48454;DHT22;34261;55.678;12.464;2023-07-28T09:01:12;25.50;94.10
48454;DHT22;34261;55.678;12.464;2023-07-28T09:03:40;25.60;95.00
48454;DHT22;34261;55.678;12.464;2023-07-28T09:06:07;25.60;94.60
48454;DHT22;34261;55.678;12.464;2023-07-28T09:08:37;25.60;94.20
48454;DHT22;34261;55.678;12.464;2023-07-28T09:11:04;25.60;94.00
48454;DHT22;34261;55.678;12.464;2023-07-28T09:13:40;25.10;93.50
48454;DHT22;34261;55.678;12.464;2023-07-28T09:16:18;24.80;94.60
48454;DHT22;34261;55.678;12.464;2023-07-28T09:18:45;24.50;94.20
48454;DHT22;34261;55.678;12.464;2023-07-28T09:21:21;24.20;94.40
48454;DHT22;34261;55.678;12.464;2023-07-28T09:23:47;24.00;94.60
48454;DHT22;34261;55.678;12.464;2023-07-28T09:26:14;24.20;94.80
48454;DHT22;34261;55.678;12.464;2023-07-28T09:28:41;24.60;95.20
48454;DHT22;34261;55.678;12.464;2023-07-28T09:31:08;25.20;96.20
48454;DHT22;34261;55.678;12.464;2023-07-28T09:33:34;25.60;94.20
48454;DHT22;34261;55.678;12.464;2023-07-28T09:36:08;25.90;92.50
48454;DHT22;34261;55.678;12.464;2023-07-28T09:38:40;26.20;94.30
48454;DHT22;34261;55.678;12.464;2023-07-28T09:41:07;26.30;94.10
48454;DHT22;34261;55.678;12.464;2023-07-28T09:43:38;26.50;94.60
48454;DHT22;34261;55.678;12.464;2023-07-28T09:46:05;25.90;93.50
48454;DHT22;34261;55.678;12.464;2023-07-28T09:48:32;25.30;93.70
48454;DHT22;34261;55.678;12.464;2023-07-28T09:51:21;25.10;94.60
48454;DHT22;34261;55.678;12.464;2023-07-28T09:53:58;24.80;94.60
48454;DHT22;34261;55.678;12.464;2023-07-28T09:56:28;24.40;94.30
48454;DHT22;34261;55.678;12.464;2023-07-28T09:58:56;24.10;94.40
48454;DHT22;34261;55.678;12.464;2023-07-28T10:01:23;24.00;94.40
48454;DHT22;34261;55.678;12.464;2023-07-28T10:03:49;23.90;95.10
48454;DHT22;34261;55.678;12.464;2023-07-28T10:06:16;24.40;95.10
48454;DHT22;34261;55.678;12.464;2023-07-28T10:08:45;25.10;95.30
48454;DHT22;34261;55.678;12.464;2023-07-28T10:11:12;25.60;93.30
48454;DHT22;34261;55.678;12.464;2023-07-28T10:13:42;26.20;95.30
48454;DHT22;34261;55.678;12.464;2023-07-28T10:16:09;26.50;92.30
48454;DHT22;34261;55.678;12.464;2023-07-28T10:18:36;26.80;91.00
48454;DHT22;34261;55.678;12.464;2023-07-28T10:21:15;27.00;92.00
48454;DHT22;34261;55.678;12.464;2023-07-28T10:23:41;26.90;91.40
48454;DHT22;34261;55.678;12.464;2023-07-28T10:26:09;26.50;91.50
48454;DHT22;34261;55.678;12.464;2023-07-28T10:28:37;25.90;91.60
48454;DHT22;34261;55.678;12.464;2023-07-28T10:31:10;25.60;91.60
48454;DHT22;34261;55.678;12.464;2023-07-28T10:33:41;25.30;92.30
48454;DHT22;34261;55.678;12.464;2023-07-28T10:36:33;25.00;91.50
48454;DHT22;34261;55.678;12.464;2023-07-28T10:39:01;24.60;92.60
48454;DHT22;34261;55.678;12.464;2023-07-28T10:41:28;25.00;92.90
48454;DHT22;34261;55.678;12.464;2023-07-28T10:43:54;25.60;91.60
48454;DHT22;34261;55.678;12.464;2023-07-28T10:46:21;26.20;90.80
48454;DHT22;34261;55.678;12.464;2023-07-28T10:48:48;26.50;92.00
48454;DHT22;34261;55.678;12.464;2023-07-28T10:51:24;26.10;92.40
48454;DHT22;34261;55.678;12.464;2023-07-28T10:53:54;25.80;92.60
48454;DHT22;34261;55.678;12.464;2023-07-28T10:56:20;25.80;92.40
48454;DHT22;34261;55.678;12.464;2023-07-28T10:58:46;25.80;93.00
48454;DHT22;34261;55.678;12.464;2023-07-28T11:01:14;26.60;91.50
48454;DHT22;34261;55.678;12.464;2023-07-28T11:03:41;27.00;91.80
48454;DHT22;34261;55.678;12.464;2023-07-28T11:06:06;27.00;91.80
48454;DHT22;34261;55.678;12.464;2023-07-28T11:08:32;26.40;91.90
48454;DHT22;34261;55.678;12.464;2023-07-28T11:10:57;25.90;92.60
48454;DHT22;34261;55.678;12.464;2023-07-28T11:13:24;25.40;93.30
48454;DHT22;34261;55.678;12.464;2023-07-28T11:15:50;25.20;93.30
48454;DHT22;34261;55.678;12.464;2023-07-28T11:18:16;25.40;93.60
48454;DHT22;34261;55.678;12.464;2023-07-28T11:20:42;26.10;93.80
48454;DHT22;34261;55.678;12.464;2023-07-28T11:23:07;26.50;92.20
48454;DHT22;34261;55.678;12.464;2023-07-28T11:25:34;27.00;92.70
48454;DHT22;34261;55.678;12.464;2023-07-28T11:28:02;27.30;91.10
48454;DHT22;34261;55.678;12.464;2023-07-28T11:30:31;27.70;90.50
48454;DHT22;34261;55.678;12.464;2023-07-28T11:32:57;28.00;91.00
48454;DHT22;34261;55.678;12.464;2023-07-28T11:35:23;28.20;91.30
48454;DHT22;34261;55.678;12.464;2023-07-28T11:37:50;28.50;91.00
48454;DHT22;34261;55.678;12.464;2023-07-28T11:40:19;28.50;89.90
48454;DHT22;34261;55.678;12.464;2023-07-28T11:42:50;28.20;90.40
48454;DHT22;34261;55.678;12.464;2023-07-28T11:45:17;27.70;90.10
48454;DHT22;34261;55.678;12.464;2023-07-28T11:48:00;27.00;90.20
48454;DHT22;34261;55.678;12.464;2023-07-28T11:50:28;26.70;90.70
48454;DHT22;34261;55.678;12.464;2023-07-28T11:52:55;26.90;91.10
48454;DHT22;34261;55.678;12.464;2023-07-28T11:55:21;27.60;90.50
48454;DHT22;34261;55.678;12.464;2023-07-28T11:57:48;28.10;90.00
48454;DHT22;34261;55.678;12.464;2023-07-28T12:00:14;28.50;89.70
48454;DHT22;34261;55.678;12.464;2023-07-28T12:02:43;28.80;90.10
48454;DHT22;34261;55.678;12.464;2023-07-28T12:05:15;28.30;88.30
48454;DHT22;34261;55.678;12.464;2023-07-28T12:07:46;27.80;87.80
48454;DHT22;34261;55.678;12.464;2023-07-28T12:10:12;28.00;89.40
48454;DHT22;34261;55.678;12.464;2023-07-28T12:12:46;27.70;89.30
48454;DHT22;34261;55.678;12.464;2023-07-28T12:15:28;28.30;88.90
48454;DHT22;34261;55.678;12.464;2023-07-28T12:18:09;28.70;89.50
48454;DHT22;34261;55.678;12.464;2023-07-28T12:20:57;29.50;87.70
48454;DHT22;34261;55.678;12.464;2023-07-28T12:23:22;29.70;86.50
48454;DHT22;34261;55.678;12.464;2023-07-28T12:25:49;29.70;85.90
48454;DHT22;34261;55.678;12.464;2023-07-28T12:28:15;29.90;87.80
48454;DHT22;34261;55.678;12.464;2023-07-28T12:30:41;29.90;85.70
48454;DHT22;34261;55.678;12.464;2023-07-28T12:33:07;29.50;87.10
48454;DHT22;34261;55.678;12.464;2023-07-28T12:35:33;29.60;85.90
48454;DHT22;34261;55.678;12.464;2023-07-28T12:38:03;30.10;86.00
48454;DHT22;34261;55.678;12.464;2023-07-28T12:40:33;30.30;88.20
48454;DHT22;34261;55.678;12.464;2023-07-28T12:43:01;30.60;86.10
48454;DHT22;34261;55.678;12.464;2023-07-28T12:45:26;30.70;87.50
48454;DHT22;34261;55.678;12.464;2023-07-28T12:47:53;31.20;88.40
48454;DHT22;34261;55.678;12.464;2023-07-28T12:50:19;31.40;86.30
48454;DHT22;34261;55.678;12.464;2023-07-28T12:52:46;31.50;87.20
48454;DHT22;34261;55.678;12.464;2023-07-28T12:55:12;31.30;84.40
48454;DHT22;34261;55.678;12.464;2023-07-28T12:57:37;31.00;83.20
48454;DHT22;34261;55.678;12.464;2023-07-28T13:00:03;30.30;82.20
48454;DHT22;34261;55.678;12.464;2023-07-28T13:02:40;29.60;82.30
48454;DHT22;34261;55.678;12.464;2023-07-28T13:05:07;28.80;86.40
48454;DHT22;34261;55.678;12.464;2023-07-28T13:07:33;28.50;84.80
48454;DHT22;34261;55.678;12.464;2023-07-28T13:09:58;28.10;85.30
48454;DHT22;34261;55.678;12.464;2023-07-28T13:12:24;28.20;87.00
48454;DHT22;34261;55.678;12.464;2023-07-28T13:14:49;28.10;89.30
48454;DHT22;34261;55.678;12.464;2023-07-28T13:17:15;27.90;85.60
48454;DHT22;34261;55.678;12.464;2023-07-28T13:19:41;27.70;86.00
48454;DHT22;34261;55.678;12.464;2023-07-28T13:22:07;27.80;86.10
48454;DHT22;34261;55.678;12.464;2023-07-28T13:24:32;28.30;88.10
48454;DHT22;34261;55.678;12.464;2023-07-28T13:26:58;28.30;85.20
48454;DHT22;34261;55.678;12.464;2023-07-28T13:29:24;28.00;87.00
48454;DHT22;34261;55.678;12.464;2023-07-28T13:31:49;27.40;85.30
48454;DHT22;34261;55.678;12.464;2023-07-28T13:34:15;27.90;85.10
48454;DHT22;34261;55.678;12.464;2023-07-28T13:36:40;28.40;85.10
48454;DHT22;34261;55.678;12.464;2023-07-28T13:39:06;28.50;83.70
48454;DHT22;34261;55.678;12.464;2023-07-28T13:41:31;28.70;84.30
48454;DHT22;34261;55.678;12.464;2023-07-28T13:43:57;29.30;84.70
48454;DHT22;34261;55.678;12.464;2023-07-28T13:46:22;29.40;83.30
48454;DHT22;34261;55.678;12.464;2023-07-28T13:48:48;29.80;81.90
48454;DHT22;34261;55.678;12.464;2023-07-28T13:51:13;29.50;80.40
48454;DHT22;34261;55.678;12.464;2023-07-28T13:53:39;29.80;83.00
48454;DHT22;34261;55.678;12.464;2023-07-28T13:56:04;30.00;82.30
48454;DHT22;34261;55.678;12.464;2023-07-28T13:58:30;30.00;80.70
48454;DHT22;34261;55.678;12.464;2023-07-28T14:00:56;29.00;80.10
48454;DHT22;34261;55.678;12.464;2023-07-28T14:03:21;28.40;80.90
48454;DHT22;34261;55.678;12.464;2023-07-28T14:05:47;28.30;83.90
48454;DHT22;34261;55.678;12.464;2023-07-28T14:08:13;28.70;83.10
48454;DHT22;34261;55.678;12.464;2023-07-28T14:10:42;29.10;82.00
48454;DHT22;34261;55.678;12.464;2023-07-28T14:13:08;29.50;80.90
48454;DHT22;34261;55.678;12.464;2023-07-28T14:15:34;29.70;80.60
48454;DHT22;34261;55.678;12.464;2023-07-28T14:17:59;29.60;79.70
48454;DHT22;34261;55.678;12.464;2023-07-28T14:20:25;29.60;79.70
48454;DHT22;34261;55.678;12.464;2023-07-28T14:22:50;30.00;81.00
48454;DHT22;34261;55.678;12.464;2023-07-28T14:25:16;30.30;80.80
48454;DHT22;34261;55.678;12.464;2023-07-28T14:27:41;30.60;77.40
48454;DHT22;34261;55.678;12.464;2023-07-28T14:30:07;30.40;77.30
48454;DHT22;34261;55.678;12.464;2023-07-28T14:32:33;30.40;75.40
48454;DHT22;34261;55.678;12.464;2023-07-28T14:34:58;30.00;75.90
48454;DHT22;34261;55.678;12.464;2023-07-28T14:37:24;30.00;74.90
48454;DHT22;34261;55.678;12.464;2023-07-28T14:39:49;30.10;75.50
48454;DHT22;34261;55.678;12.464;2023-07-28T14:42:15;30.30;77.30
48454;DHT22;34261;55.678;12.464;2023-07-28T14:44:41;30.40;76.70
48454;DHT22;34261;55.678;12.464;2023-07-28T14:47:06;30.60;77.40
48454;DHT22;34261;55.678;12.464;2023-07-28T14:49:32;30.40;76.20
48454;DHT22;34261;55.678;12.464;2023-07-28T14:51:57;30.40;75.50
48454;DHT22;34261;55.678;12.464;2023-07-28T14:54:23;30.70;73.90
48454;DHT22;34261;55.678;12.464;2023-07-28T14:56:49;30.90;75.40
48454;DHT22;34261;55.678;12.464;2023-07-28T14:59:15;30.90;75.00
48454;DHT22;34261;55.678;12.464;2023-07-28T15:01:40;30.80;74.30
48454;DHT22;34261;55.678;12.464;2023-07-28T15:04:06;30.60;72.30
48454;DHT22;34261;55.678;12.464;2023-07-28T15:06:32;30.50;72.40
48454;DHT22;34261;55.678;12.464;2023-07-28T15:08:58;30.50;73.50
48454;DHT22;34261;55.678;12.464;2023-07-28T15:11:23;30.70;75.00
48454;DHT22;34261;55.678;12.464;2023-07-28T15:13:50;30.70;76.00
48454;DHT22;34261;55.678;12.464;2023-07-28T15:16:15;30.70;74.40
48454;DHT22;34261;55.678;12.464;2023-07-28T15:18:41;30.30;75.00